createdAt,value
2019-05-07T00:01:23.234Z,9.83
2019-05-07T00:03:52.876Z,9.10
2019-05-07T00:06:23.113Z,10.25
2019-05-07T00:08:52.634Z,10.05
2019-05-07T00:11:22.427Z,9.88
2019-05-07T00:13:52.284Z,9.70
2019-05-07T00:16:22.460Z,9.38
2019-05-07T00:18:52.521Z,9.00
2019-05-07T00:21:23.279Z,10.05
2019-05-07T00:23:52.781Z,9.93
2019-05-07T00:26:22.625Z,9.88
2019-05-07T00:28:52.658Z,10.10
2019-05-07T00:31:23.236Z,10.13
2019-05-07T00:33:52.738Z,9.48
2019-05-07T00:36:42.819Z,10.15
2019-05-07T00:39:29.808Z,9.90
2019-05-07T00:42:22.040Z,10.68
2019-05-07T00:45:17.091Z,10.10
2019-05-07T00:47:36.026Z,10.03
2019-05-07T00:50:12.870Z,9.75
2019-05-07T00:52:43.016Z,9.60
2019-05-07T00:55:12.386Z,10.03
2019-05-07T00:57:42.867Z,9.68
2019-05-07T01:00:13.123Z,9.80
2019-05-07T01:02:43.184Z,10.30
2019-05-07T01:05:12.712Z,10.48
2019-05-07T01:07:42.109Z,10.23
2019-05-07T01:10:12.831Z,10.18
2019-05-07T01:12:42.405Z,10.50
2019-05-07T01:15:12.873Z,10.40
2019-05-07T01:17:42.601Z,10.72
2019-05-07T01:20:12.581Z,11.15
2019-05-07T01:22:42.501Z,10.78
2019-05-07T01:25:12.867Z,10.60
2019-05-07T01:27:42.761Z,10.98
2019-05-07T01:30:13.022Z,11.03
2019-05-07T01:32:53.248Z,10.85
2019-05-07T01:35:42.258Z,11.40
2019-05-07T01:38:12.341Z,11.15
2019-05-07T01:40:42.776Z,11.73
2019-05-07T01:43:12.220Z,11.30
2019-05-07T01:45:48.991Z,11.43
2019-05-07T01:48:15.989Z,11.65
2019-05-07T01:50:45.375Z,11.30
2019-05-07T01:53:14.635Z,12.20
2019-05-07T01:55:43.901Z,12.10
2019-05-07T01:58:13.190Z,12.37
2019-05-07T02:00:42.667Z,12.65
2019-05-07T02:03:33.694Z,11.93
2019-05-07T02:06:08.751Z,12.47
2019-05-07T02:08:43.935Z,12.82
2019-05-07T02:11:15.300Z,12.47
2019-05-07T02:13:44.590Z,12.35
2019-05-07T02:16:13.890Z,12.68
2019-05-07T02:18:43.153Z,12.65
2019-05-07T02:21:12.960Z,13.00
2019-05-07T02:23:42.665Z,12.37
2019-05-07T02:26:13.417Z,13.18
2019-05-07T02:28:42.864Z,12.43
2019-05-07T02:31:14.926Z,13.98
2019-05-07T02:33:43.684Z,13.15
2019-05-07T02:36:14.303Z,13.13
2019-05-07T02:39:08.754Z,12.37
2019-05-07T02:41:38.145Z,12.73
2019-05-07T02:44:07.408Z,12.75
2019-05-07T02:47:04.621Z,13.60
2019-05-07T02:49:48.865Z,11.88
2019-05-07T02:52:37.080Z,12.85
2019-05-07T02:55:15.776Z,13.05
2019-05-07T02:57:45.108Z,13.18
2019-05-07T03:00:19.109Z,13.08
2019-05-07T03:02:45.867Z,13.78
2019-05-07T03:05:15.930Z,13.48
2019-05-07T03:07:45.203Z,14.00
2019-05-07T03:10:14.511Z,14.03
2019-05-07T03:12:43.797Z,13.60
2019-05-07T03:15:13.406Z,13.60
2019-05-07T03:17:43.087Z,13.55
2019-05-07T03:20:16.529Z,13.72
2019-05-07T03:22:45.804Z,14.28
2019-05-07T03:25:23.083Z,15.03
2019-05-07T03:27:53.514Z,14.47
2019-05-07T03:30:57.418Z,14.28
2019-05-07T03:33:46.861Z,14.83
2019-05-07T03:36:16.890Z,14.38
2019-05-07T03:38:44.161Z,15.40
2019-05-07T03:41:13.389Z,15.63
2019-05-07T03:43:43.597Z,15.48
2019-05-07T03:46:15.196Z,16.07
2019-05-07T03:48:46.130Z,15.60
2019-05-07T03:51:15.390Z,15.03
2019-05-07T03:53:44.659Z,14.47
2019-05-07T03:56:13.934Z,15.65
2019-05-07T03:58:43.819Z,15.08
2019-05-07T04:01:13.736Z,15.45
2019-05-07T04:03:44.742Z,15.53
2019-05-07T04:06:14.371Z,15.50
2019-05-07T04:08:43.688Z,16.57
2019-05-07T04:11:13.805Z,16.37
2019-05-07T04:13:44.242Z,16.27
2019-05-07T04:16:13.942Z,20.50
2019-05-07T04:18:43.938Z,17.82
2019-05-07T04:21:14.089Z,18.00
2019-05-07T04:23:44.067Z,17.05
2019-05-07T04:26:23.175Z,17.82
2019-05-07T04:29:05.731Z,18.25
2019-05-07T04:31:38.687Z,17.45
2019-05-07T04:34:13.757Z,17.82
2019-05-07T04:36:45.837Z,18.37
2019-05-07T04:39:15.157Z,18.35
2019-05-07T04:41:44.417Z,18.12
2019-05-07T04:44:14.218Z,17.67
2019-05-07T04:46:47.919Z,18.73
2019-05-07T04:49:14.828Z,18.15
2019-05-07T04:51:52.692Z,17.98
2019-05-07T04:54:23.768Z,17.23
2019-05-07T04:56:53.092Z,17.62
2019-05-07T04:59:23.735Z,17.23
2019-05-07T05:01:59.969Z,19.23
2019-05-07T05:04:31.493Z,17.55
2019-05-07T05:07:02.621Z,17.42
2019-05-07T05:09:32.941Z,17.80
2019-05-07T05:12:02.839Z,17.15
2019-05-07T05:14:33.883Z,18.85
2019-05-07T05:17:03.262Z,18.07
2019-05-07T05:19:32.531Z,18.62
2019-05-07T05:22:26.631Z,18.55
2019-05-07T05:25:27.014Z,19.20
2019-05-07T05:27:56.292Z,18.50
2019-05-07T05:30:38.178Z,19.75
2019-05-07T05:33:07.460Z,21.37
2019-05-07T05:35:36.991Z,20.55
2019-05-07T05:38:06.325Z,20.17
2019-05-07T05:40:35.592Z,19.75
2019-05-07T05:43:26.669Z,19.37
2019-05-07T05:45:57.788Z,22.07
2019-05-07T05:48:27.034Z,21.93
2019-05-07T05:51:05.758Z,19.75
2019-05-07T05:53:43.365Z,20.43
2019-05-07T05:56:20.044Z,22.85
2019-05-07T05:59:12.087Z,20.77
2019-05-07T06:02:11.960Z,20.47
2019-05-07T06:04:55.415Z,20.12
2019-05-07T06:07:35.637Z,19.92
2019-05-07T06:10:24.305Z,18.42
2019-05-07T06:13:23.100Z,22.48
2019-05-07T06:15:57.258Z,21.37
2019-05-07T06:18:54.788Z,22.13
2019-05-07T06:21:41.911Z,21.25
2019-05-07T06:24:13.175Z,22.48
2019-05-07T06:26:42.630Z,22.62
2019-05-07T06:29:11.997Z,21.30
2019-05-07T06:31:42.216Z,21.48
2019-05-07T06:34:12.472Z,23.38
2019-05-07T06:36:42.466Z,21.07
2019-05-07T06:39:22.258Z,22.13
2019-05-07T06:42:09.164Z,25.27
2019-05-07T06:44:38.435Z,21.57
2019-05-07T06:47:07.691Z,20.30
2019-05-07T06:49:37.004Z,22.25
2019-05-07T06:52:06.270Z,21.65
2019-05-07T06:54:35.614Z,20.82
2019-05-07T06:57:04.863Z,21.02
2019-05-07T06:59:42.657Z,20.88
2019-05-07T07:02:32.814Z,20.50
2019-05-07T07:05:07.491Z,20.35
2019-05-07T07:07:45.877Z,20.80
2019-05-07T07:10:34.197Z,21.62
2019-05-07T07:13:03.600Z,21.52
2019-05-07T07:15:32.901Z,21.55
2019-05-07T07:18:03.181Z,20.55
2019-05-07T07:20:32.798Z,20.27
2019-05-07T07:23:02.434Z,19.87
2019-05-07T07:25:32.632Z,19.07
2019-05-07T07:28:02.733Z,17.50
2019-05-07T07:30:45.622Z,16.80
2019-05-07T07:33:15.403Z,15.28
2019-05-07T07:35:44.719Z,16.65
2019-05-07T07:38:32.890Z,17.12
2019-05-07T07:41:07.339Z,15.85
2019-05-07T07:43:36.596Z,15.50
2019-05-07T07:46:05.981Z,15.63
2019-05-07T07:48:35.254Z,16.87
2019-05-07T07:51:04.555Z,16.40
2019-05-07T07:53:35.550Z,18.73
2019-05-07T07:56:23.122Z,17.80
2019-05-07T07:59:14.167Z,18.32
2019-05-07T08:01:48.945Z,19.20
2019-05-07T08:04:18.319Z,20.12
2019-05-07T08:06:49.220Z,20.30
2019-05-07T08:09:18.521Z,20.08
2019-05-07T08:11:47.800Z,28.60
2019-05-07T08:14:17.041Z,22.87
2019-05-07T08:16:46.336Z,23.62
2019-05-07T08:19:21.845Z,21.05
2019-05-07T08:21:46.769Z,19.95
2019-05-07T08:24:16.032Z,20.50
2019-05-07T08:26:45.305Z,20.10
2019-05-07T08:29:14.569Z,18.67
2019-05-07T08:31:51.797Z,20.45
2019-05-07T08:34:25.921Z,19.80
2019-05-07T08:36:55.210Z,20.23
2019-05-07T08:39:25.175Z,20.77
2019-05-07T08:41:54.590Z,20.50
2019-05-07T08:44:27.695Z,24.75
2019-05-07T08:47:25.039Z,19.95
2019-05-07T08:49:54.335Z,19.25
2019-05-07T08:52:26.159Z,18.12
2019-05-07T08:54:54.614Z,19.02
2019-05-07T08:57:23.935Z,19.37
2019-05-07T09:00:00.402Z,18.40
2019-05-07T09:02:25.876Z,17.60
2019-05-07T09:04:55.142Z,16.97
2019-05-07T09:07:24.453Z,18.45
2019-05-07T09:09:53.727Z,19.57
2019-05-07T09:12:23.192Z,20.17
2019-05-07T09:14:53.007Z,18.25
2019-05-07T09:17:23.052Z,17.70
2019-05-07T09:19:54.790Z,17.75
2019-05-07T09:22:23.438Z,16.87
2019-05-07T09:24:52.846Z,16.37
2019-05-07T09:27:29.980Z,14.03
2019-05-07T09:30:07.787Z,14.20
2019-05-07T09:32:45.478Z,10.68
2019-05-07T09:35:19.045Z,12.70
2019-05-07T09:37:48.366Z,11.05
2019-05-07T09:40:17.760Z,11.28
2019-05-07T09:42:47.061Z,13.68
2019-05-07T09:45:16.763Z,12.78
2019-05-07T09:47:46.093Z,18.37
2019-05-07T09:50:16.162Z,18.52
2019-05-07T09:52:45.559Z,22.87
2019-05-07T09:55:17.545Z,38.42
2019-05-07T09:57:45.944Z,23.87
2019-05-07T10:00:16.231Z,17.27
2019-05-07T10:02:45.512Z,32.50
2019-05-07T10:05:16.009Z,19.37
2019-05-07T10:07:45.452Z,19.60
2019-05-07T10:10:14.945Z,17.98
2019-05-07T10:12:53.984Z,18.92
2019-05-07T10:15:23.289Z,18.55
2019-05-07T10:18:08.191Z,21.52
2019-05-07T10:20:37.467Z,20.10
2019-05-07T10:23:08.417Z,23.60
2019-05-07T10:25:41.045Z,16.75
2019-05-07T10:28:12.347Z,17.35
2019-05-07T10:30:42.799Z,17.65
2019-05-07T10:33:12.462Z,18.60
2019-05-07T10:35:43.446Z,18.70
2019-05-07T10:38:12.850Z,18.48
2019-05-07T10:40:42.267Z,24.32
2019-05-07T10:43:11.527Z,19.15
2019-05-07T10:45:58.218Z,19.55
2019-05-07T10:48:39.640Z,19.87
2019-05-07T10:51:08.949Z,33.28
2019-05-07T10:53:38.241Z,30.00
2019-05-07T10:56:07.564Z,20.00
2019-05-07T10:58:36.847Z,19.73
2019-05-07T11:01:06.565Z,19.65
2019-05-07T11:03:35.836Z,18.90
2019-05-07T11:06:05.138Z,18.35
2019-05-07T11:08:34.423Z,19.20
2019-05-07T11:11:03.793Z,18.32
2019-05-07T11:13:33.179Z,18.50
2019-05-07T11:16:11.638Z,18.32
2019-05-07T11:18:48.266Z,22.70
2019-05-07T11:21:24.783Z,18.15
2019-05-07T11:23:54.078Z,17.73
2019-05-07T11:26:23.434Z,17.70
2019-05-07T11:28:52.694Z,17.92
2019-05-07T11:31:22.373Z,18.35
2019-05-07T11:33:52.112Z,18.07
2019-05-07T11:36:21.653Z,20.60
2019-05-07T11:38:53.798Z,19.12
2019-05-07T11:41:32.282Z,20.77
2019-05-07T11:44:12.446Z,21.50
2019-05-07T11:47:18.953Z,21.37
2019-05-07T11:50:05.509Z,22.45
2019-05-07T11:52:37.666Z,16.73
2019-05-07T11:55:07.715Z,16.60
2019-05-07T11:57:37.008Z,15.88
2019-05-07T12:00:09.892Z,15.75
2019-05-07T12:02:39.228Z,16.07
2019-05-07T12:05:09.265Z,14.85
2019-05-07T12:07:38.624Z,15.75
2019-05-07T12:10:08.015Z,17.85
2019-05-07T12:12:39.593Z,14.60
2019-05-07T12:15:08.922Z,15.48
2019-05-07T12:17:38.225Z,14.90
2019-05-07T12:20:07.573Z,15.43
2019-05-07T12:22:48.760Z,14.33
2019-05-07T12:25:18.844Z,15.23
2019-05-07T12:27:49.778Z,16.20
2019-05-07T12:30:38.818Z,15.05
2019-05-07T12:33:30.015Z,15.65
2019-05-07T12:35:59.393Z,14.83
2019-05-07T12:38:28.770Z,13.78
2019-05-07T12:40:59.888Z,14.53
2019-05-07T12:43:29.184Z,14.65
2019-05-07T12:45:58.482Z,14.13
2019-05-07T12:48:27.799Z,13.85
2019-05-07T12:50:57.290Z,13.00
2019-05-07T12:53:43.930Z,13.05
2019-05-07T12:56:13.243Z,14.38
2019-05-07T12:58:42.583Z,16.07
2019-05-07T13:01:23.525Z,14.80
2019-05-07T13:04:05.906Z,13.65
2019-05-07T13:06:38.922Z,12.75
2019-05-07T13:09:08.330Z,13.28
2019-05-07T13:11:37.664Z,14.00
2019-05-07T13:14:06.965Z,14.05
2019-05-07T13:16:36.306Z,14.05
2019-05-07T13:19:05.649Z,13.72
2019-05-07T13:21:46.425Z,13.78
2019-05-07T13:24:05.972Z,13.50
2019-05-07T13:26:35.509Z,15.08
2019-05-07T13:29:04.982Z,13.32
2019-05-07T13:31:34.883Z,13.75
2019-05-07T13:34:04.381Z,13.53
2019-05-07T13:36:35.636Z,14.47
2019-05-07T13:39:17.399Z,13.58
2019-05-07T13:41:58.698Z,12.78
2019-05-07T13:44:37.508Z,11.20
2019-05-07T13:47:24.717Z,19.95
2019-05-07T13:49:54.303Z,10.65
2019-05-07T13:52:25.126Z,11.03
2019-05-07T13:54:54.995Z,10.95
2019-05-07T13:57:24.385Z,10.63
2019-05-07T13:59:54.300Z,10.60
2019-05-07T14:02:25.466Z,11.12
2019-05-07T14:04:54.897Z,10.30
2019-05-07T14:07:25.005Z,9.90
2019-05-07T14:09:54.326Z,11.53
2019-05-07T14:12:23.730Z,10.58
2019-05-07T14:14:53.301Z,10.50
2019-05-07T14:17:22.856Z,10.85
2019-05-07T14:19:53.132Z,11.00
2019-05-07T14:22:22.854Z,10.95
2019-05-07T14:24:53.080Z,11.50
2019-05-07T14:27:22.601Z,10.30
2019-05-07T14:29:52.312Z,12.05
2019-05-07T14:32:33.885Z,11.57
2019-05-07T14:35:07.896Z,11.60
2019-05-07T14:37:43.366Z,11.90
2019-05-07T14:40:13.128Z,11.57
2019-05-07T14:42:46.946Z,11.33
2019-05-07T14:45:16.409Z,11.57
2019-05-07T14:47:45.829Z,11.60
2019-05-07T14:50:15.447Z,12.78
2019-05-07T14:52:44.784Z,12.40
2019-05-07T14:55:14.140Z,12.30
2019-05-07T14:57:43.476Z,13.40
2019-05-07T15:00:13.146Z,11.85
2019-05-07T15:02:42.644Z,11.35
2019-05-07T15:05:12.568Z,11.10
2019-05-07T15:07:42.116Z,11.75
2019-05-07T15:10:11.487Z,11.40
2019-05-07T15:12:42.612Z,11.90
2019-05-07T15:15:12.616Z,11.95
2019-05-07T15:17:56.775Z,13.03
2019-05-07T15:20:26.321Z,12.82
2019-05-07T15:23:22.056Z,12.80
2019-05-07T15:25:51.801Z,13.10
2019-05-07T15:28:22.847Z,18.57
2019-05-07T15:31:17.325Z,14.05
2019-05-07T15:33:46.595Z,12.35
2019-05-07T15:36:15.932Z,12.30
2019-05-07T15:38:45.233Z,12.63
2019-05-07T15:41:14.531Z,11.83
2019-05-07T15:43:46.187Z,11.50
2019-05-07T15:46:15.075Z,12.37
2019-05-07T15:48:44.319Z,12.07
2019-05-07T15:51:16.529Z,11.93
2019-05-07T15:53:48.802Z,11.90
2019-05-07T15:56:18.098Z,11.60
2019-05-07T15:58:47.390Z,12.00
2019-05-07T16:01:16.709Z,11.57
2019-05-07T16:03:46.576Z,11.05
2019-05-07T16:06:15.937Z,11.73
2019-05-07T16:08:57.692Z,10.65
2019-05-07T16:11:27.320Z,10.10
2019-05-07T16:14:26.180Z,10.35
2019-05-07T16:16:56.851Z,10.90
2019-05-07T16:19:29.695Z,10.00
2019-05-07T16:22:03.802Z,11.28
2019-05-07T16:24:33.090Z,11.63
2019-05-07T16:27:05.138Z,11.08
2019-05-07T16:29:35.684Z,11.22
2019-05-07T16:32:04.620Z,11.15
2019-05-07T16:34:33.912Z,11.05
2019-05-07T16:37:06.875Z,10.60
2019-05-07T16:39:34.256Z,11.38
2019-05-07T16:42:03.590Z,10.88
2019-05-07T16:44:33.181Z,10.00
2019-05-07T16:47:02.903Z,9.85
2019-05-07T16:49:32.338Z,9.60
2019-05-07T16:52:01.936Z,10.13
2019-05-07T16:54:31.340Z,10.08
2019-05-07T16:57:21.545Z,10.75
2019-05-07T16:59:52.206Z,10.18
2019-05-07T17:02:25.667Z,10.03
2019-05-07T17:05:14.597Z,8.90
2019-05-07T17:08:09.148Z,10.35
2019-05-07T17:10:38.417Z,10.55
2019-05-07T17:13:09.855Z,10.98
2019-05-07T17:18:42.428Z,10.93
2019-05-07T17:21:12.355Z,9.98
2019-05-07T17:23:44.676Z,10.70
2019-05-07T17:26:12.779Z,11.12
2019-05-07T17:28:42.681Z,10.28
2019-05-07T17:31:12.494Z,10.20
2019-05-07T17:33:42.476Z,9.30
2019-05-07T17:36:12.233Z,9.20
2019-05-07T17:38:42.909Z,9.85
2019-05-07T17:41:19.625Z,11.08
2019-05-07T17:43:43.448Z,30.48
2019-05-07T17:46:12.710Z,22.05
2019-05-07T17:48:42.812Z,13.05
2019-05-07T17:51:34.230Z,10.15
2019-05-07T17:54:03.586Z,9.80
2019-05-07T17:56:33.035Z,9.35
2019-05-07T17:59:02.945Z,10.13
2019-05-07T18:01:43.168Z,9.93
2019-05-07T18:04:12.549Z,10.38
2019-05-07T18:06:42.813Z,11.55
2019-05-07T18:09:12.299Z,11.48
2019-05-07T18:11:42.903Z,11.22
2019-05-07T18:14:12.282Z,11.08
2019-05-07T18:17:06.796Z,10.82
2019-05-07T18:19:36.225Z,11.30
2019-05-07T18:22:05.688Z,10.48
2019-05-07T18:24:35.117Z,10.93
2019-05-07T18:27:06.359Z,9.95
2019-05-07T18:29:35.919Z,10.60
2019-05-07T18:32:06.005Z,10.20
2019-05-07T18:34:35.443Z,10.13
2019-05-07T18:37:04.948Z,10.08
2019-05-07T18:39:34.343Z,9.95
2019-05-07T18:42:03.651Z,10.20
2019-05-07T18:44:33.188Z,9.10
2019-05-07T18:47:08.098Z,10.49
2019-05-07T18:49:38.032Z,9.68
2019-05-07T18:52:07.633Z,9.85
2019-05-07T18:54:37.044Z,9.20
2019-05-07T18:57:06.463Z,9.70
2019-05-07T18:59:37.060Z,9.45
2019-05-07T19:02:06.758Z,9.93
2019-05-07T19:04:36.140Z,9.38
2019-05-07T19:07:05.488Z,9.73
2019-05-07T19:09:35.009Z,9.90
2019-05-07T19:12:05.236Z,9.65
2019-05-07T19:14:36.627Z,13.75
2019-05-07T19:17:06.091Z,11.25
2019-05-07T19:19:35.486Z,11.10
2019-05-07T19:22:04.878Z,10.31
2019-05-07T19:24:44.263Z,10.23
2019-05-07T19:27:05.514Z,10.25
2019-05-07T19:29:34.886Z,11.00
2019-05-07T19:32:06.057Z,11.05
2019-05-07T19:34:35.387Z,10.45
2019-05-07T19:37:04.838Z,10.32
2019-05-07T19:39:37.301Z,11.20
2019-05-07T19:42:06.749Z,10.85
2019-05-07T19:44:36.223Z,11.22
2019-05-07T19:47:05.746Z,11.40
2019-05-07T19:49:35.435Z,11.12
2019-05-07T19:52:04.861Z,10.50
2019-05-07T19:54:34.279Z,11.80
2019-05-07T19:57:03.663Z,11.95
2019-05-07T19:59:33.071Z,12.25
2019-05-07T20:02:04.144Z,10.55
2019-05-07T20:04:33.707Z,12.70
2019-05-07T20:07:03.108Z,13.03
2019-05-07T20:09:35.045Z,12.37
2019-05-07T20:20:33.150Z,14.33
2019-05-07T20:27:33.249Z,13.88
2019-05-07T20:33:38.318Z,13.60
2019-05-07T20:36:07.893Z,13.40
2019-05-07T20:38:37.301Z,13.72
2019-05-07T20:41:06.714Z,13.95
2019-05-07T20:43:37.563Z,13.70
2019-05-07T20:46:06.999Z,14.23
2019-05-07T20:48:37.189Z,14.23
2019-05-07T20:51:06.628Z,16.07
2019-05-07T20:53:59.387Z,16.95
2019-05-07T20:56:32.305Z,16.57
2019-05-07T20:59:03.165Z,17.07
2019-05-07T21:01:35.111Z,16.30
2019-05-07T21:04:04.557Z,17.20
2019-05-07T21:06:33.980Z,16.42
2019-05-07T21:09:04.452Z,17.30
2019-05-07T21:11:33.980Z,17.15
2019-05-07T21:14:04.656Z,17.77
2019-05-07T21:16:35.613Z,18.67
2019-05-07T21:19:07.439Z,18.60
2019-05-07T21:21:38.204Z,18.07
2019-05-07T21:24:07.939Z,19.42
2019-05-07T21:26:37.358Z,20.12
2019-05-07T21:29:09.414Z,20.85
2019-05-07T21:31:43.047Z,15.20
2019-05-07T21:34:12.697Z,20.23
2019-05-07T21:36:45.613Z,19.90
2019-05-07T21:39:17.989Z,21.17
2019-05-07T21:41:47.378Z,20.05
2019-05-07T21:44:16.762Z,19.95
2019-05-07T21:46:46.247Z,19.55
2019-05-07T21:49:15.707Z,20.30
2019-05-07T21:51:45.077Z,19.42
2019-05-07T21:54:29.566Z,19.62
2019-05-07T21:57:24.156Z,19.70
2019-05-07T22:00:13.403Z,20.55
2019-05-07T22:02:42.833Z,21.55
2019-05-07T22:05:12.327Z,20.05
2019-05-07T22:07:41.666Z,21.55
2019-05-07T22:10:12.744Z,19.25
2019-05-07T22:12:42.239Z,20.10
2019-05-07T22:15:12.974Z,21.33
2019-05-07T22:17:44.335Z,20.35
2019-05-07T22:20:13.343Z,19.95
2019-05-07T22:22:42.847Z,20.88
2019-05-07T22:25:13.096Z,20.72
2019-05-07T22:27:42.533Z,20.43
2019-05-07T22:30:15.451Z,20.50
2019-05-07T22:32:53.649Z,19.52
2019-05-07T22:35:27.218Z,20.55
2019-05-07T22:37:56.586Z,19.73
2019-05-07T22:40:25.912Z,19.70
2019-05-07T22:42:55.310Z,19.52
2019-05-07T22:45:24.606Z,20.30
2019-05-07T22:47:53.968Z,19.60
2019-05-07T22:50:23.276Z,19.23
2019-05-07T22:52:54.393Z,20.08
2019-05-07T22:55:23.701Z,19.40
2019-05-07T22:57:58.768Z,19.07
2019-05-07T23:00:33.038Z,18.67
2019-05-07T23:03:02.912Z,17.98
2019-05-07T23:05:32.511Z,17.65
2019-05-07T23:08:02.417Z,17.23
2019-05-07T23:10:33.278Z,17.87
2019-05-07T23:13:02.798Z,16.75
2019-05-07T23:15:32.290Z,17.52
2019-05-07T23:18:04.081Z,16.25
2019-05-07T23:20:32.719Z,17.00
2019-05-07T23:23:02.077Z,16.67
2019-05-07T23:25:32.222Z,17.40
2019-05-07T23:28:04.880Z,17.55
2019-05-07T23:30:34.378Z,17.20
2019-05-07T23:33:03.673Z,17.00
2019-05-07T23:35:33.019Z,17.17
2019-05-07T23:38:02.603Z,17.80
2019-05-07T23:40:57.004Z,16.65
2019-05-07T23:43:26.270Z,16.60
2019-05-07T23:45:55.603Z,16.20
2019-05-07T23:48:24.887Z,15.90
2019-05-07T23:50:54.268Z,16.23
2019-05-07T23:53:23.591Z,16.80
2019-05-07T23:55:52.927Z,16.40
2019-05-07T23:58:23.076Z,16.32
